createdAt,value
2022-08-05T00:00:19.610Z,82.97
2022-08-05T00:02:51.452Z,82.04
2022-08-05T00:05:27.062Z,84.33
2022-08-05T00:08:32.571Z,87.43
2022-08-05T00:11:00.756Z,88.64
2022-08-05T00:13:38.405Z,88.35
2022-08-05T00:16:12.574Z,87.08
2022-08-05T00:18:45.218Z,86.29
2022-08-05T00:21:14.450Z,84.98
2022-08-05T00:23:46.967Z,85.13
2022-08-05T00:26:30.821Z,85.21
2022-08-05T00:28:59.343Z,86.53
2022-08-05T00:31:41.397Z,86.96
2022-08-05T00:34:53.755Z,87.02
2022-08-05T00:37:10.663Z,85.10
2022-08-05T00:39:58.778Z,84.81
2022-08-05T00:42:34.380Z,85.41
2022-08-05T00:45:02.455Z,83.88
2022-08-05T00:47:53.323Z,82.54
2022-08-05T00:50:17.242Z,83.96
2022-08-05T00:52:45.379Z,82.64
2022-08-05T00:55:14.128Z,82.39
2022-08-05T00:57:55.600Z,83.43
2022-08-05T01:00:32.321Z,82.28
2022-08-05T01:03:01.323Z,82.65
2022-08-05T01:05:35.236Z,81.25
2022-08-05T01:08:30.812Z,81.19
2022-08-05T01:11:22.213Z,83.00
2022-08-05T01:14:16.576Z,84.88
2022-08-05T01:16:52.268Z,84.69
2022-08-05T01:19:46.331Z,83.51
2022-08-05T01:22:29.083Z,83.43
2022-08-05T01:25:20.706Z,83.74
2022-08-05T01:28:20.972Z,82.02
2022-08-05T01:30:57.287Z,79.73
2022-08-05T01:33:35.469Z,78.17
2022-08-05T01:36:13.041Z,79.63
2022-08-05T01:38:44.224Z,82.24
2022-08-05T01:41:14.590Z,83.03
2022-08-05T01:43:42.080Z,84.32
2022-08-05T01:46:16.650Z,83.72
2022-08-05T01:48:58.682Z,86.08
2022-08-05T01:51:26.912Z,88.22
2022-08-05T01:53:59.186Z,88.93
2022-08-05T01:58:12.154Z,87.23
2022-08-05T01:59:20.864Z,85.51
2022-08-05T02:01:49.989Z,85.26
2022-08-05T02:04:18.604Z,84.88
2022-08-05T02:06:45.976Z,85.16
2022-08-05T02:09:16.352Z,83.75
2022-08-05T02:12:05.935Z,84.54
2022-08-05T02:15:04.128Z,85.36
2022-08-05T02:18:30.569Z,83.91
2022-08-05T02:20:28.250Z,82.87
2022-08-05T02:23:01.665Z,83.15
2022-08-05T02:25:32.980Z,83.10
2022-08-05T02:28:02.997Z,83.32
2022-08-05T02:30:54.404Z,84.52
2022-08-05T02:33:24.646Z,85.02
2022-08-05T02:36:05.486Z,86.42
2022-08-05T02:38:35.495Z,85.55
2022-08-05T02:41:06.399Z,84.90
2022-08-05T02:44:02.964Z,84.98
2022-08-05T02:46:31.138Z,82.80
2022-08-05T02:49:01.380Z,80.79
2022-08-05T02:52:02.932Z,83.43
2022-08-05T02:54:34.822Z,83.80
2022-08-05T02:57:10.084Z,84.03
2022-08-05T02:59:57.735Z,83.26
2022-08-05T03:02:29.927Z,82.36
2022-08-05T03:04:58.288Z,82.44
2022-08-05T03:08:00.331Z,83.12
2022-08-05T03:10:24.604Z,83.71
2022-08-05T03:12:54.173Z,83.38
2022-08-05T03:15:23.482Z,82.98
2022-08-05T03:17:55.771Z,83.92
2022-08-05T03:20:24.492Z,83.79
2022-08-05T03:22:57.360Z,83.65
2022-08-05T03:25:33.507Z,83.80
2022-08-05T03:28:13.928Z,82.61
2022-08-05T03:30:42.770Z,83.22
2022-08-05T03:33:10.309Z,83.93
2022-08-05T03:35:40.687Z,83.21
2022-08-05T03:38:11.829Z,82.40
2022-08-05T03:40:48.447Z,81.37
2022-08-05T03:44:09.902Z,82.00
2022-08-05T03:46:05.146Z,82.59
2022-08-05T03:48:36.779Z,81.32
2022-08-05T03:52:37.483Z,79.53
2022-08-05T03:55:52.465Z,81.96
2022-08-05T03:56:59.865Z,81.58
2022-08-05T03:59:47.170Z,81.56
2022-08-05T04:02:37.490Z,81.24
2022-08-05T04:05:09.962Z,80.58
2022-08-05T04:07:57.338Z,79.82
2022-08-05T04:10:30.787Z,80.83
2022-08-05T04:13:01.235Z,82.11
2022-08-05T04:15:32.988Z,85.42
2022-08-05T04:18:09.357Z,84.62
2022-08-05T04:20:37.408Z,83.60
2022-08-05T04:23:04.677Z,83.29
2022-08-05T04:25:56.577Z,83.41
2022-08-05T04:28:20.548Z,82.68
2022-08-05T04:30:58.652Z,82.13
2022-08-05T04:33:54.395Z,82.07
2022-08-05T04:36:44.901Z,82.55
2022-08-05T04:39:07.172Z,82.43
2022-08-05T04:41:36.714Z,81.98
2022-08-05T04:44:09.101Z,81.59
2022-08-05T04:46:38.464Z,81.75
2022-08-05T04:49:12.356Z,82.98
2022-08-05T04:51:45.187Z,83.48
2022-08-05T04:54:14.661Z,82.82
2022-08-05T04:56:42.396Z,81.56
2022-08-05T04:59:14.011Z,80.67
2022-08-05T05:02:35.198Z,81.37
2022-08-05T05:04:38.279Z,84.37
2022-08-05T05:07:09.547Z,83.94
2022-08-05T05:09:37.486Z,83.41
2022-08-05T05:12:06.267Z,83.13
2022-08-05T05:14:36.272Z,83.74
2022-08-05T05:17:07.600Z,82.56
2022-08-05T05:19:44.346Z,82.54
2022-08-05T05:22:24.032Z,82.23
2022-08-05T05:24:58.946Z,82.79
2022-08-05T05:27:45.015Z,82.57
2022-08-05T05:30:30.689Z,81.66
2022-08-05T05:33:09.436Z,81.97
2022-08-05T05:35:46.880Z,80.77
2022-08-05T05:38:27.001Z,81.18
2022-08-05T05:40:57.860Z,83.62
2022-08-05T05:43:54.613Z,82.96
2022-08-05T05:46:17.600Z,83.32
2022-08-05T05:48:48.028Z,81.46
2022-08-05T05:51:20.605Z,81.79
2022-08-05T05:53:57.671Z,79.43
2022-08-05T05:56:32.602Z,77.40
2022-08-05T05:59:06.658Z,77.74
2022-08-05T06:01:37.811Z,76.11
2022-08-05T06:04:11.930Z,75.28
2022-08-05T06:06:42.059Z,72.57
2022-08-05T06:09:17.540Z,70.39
2022-08-05T06:12:01.899Z,68.90
2022-08-05T06:14:30.905Z,69.38
2022-08-05T06:16:58.585Z,70.30
2022-08-05T06:19:34.038Z,69.01
2022-08-05T06:22:03.898Z,70.05
2022-08-05T06:24:32.023Z,72.79
2022-08-05T06:26:59.234Z,76.96
2022-08-05T06:29:48.993Z,78.99
2022-08-05T06:32:26.186Z,74.26
2022-08-05T06:34:58.606Z,78.63
2022-08-05T06:37:55.666Z,74.96
2022-08-05T06:40:18.071Z,75.06
2022-08-05T06:42:52.108Z,76.81
2022-08-05T06:45:44.466Z,77.08
2022-08-05T06:48:36.840Z,78.26
2022-08-05T06:50:57.893Z,77.35
2022-08-05T06:53:28.505Z,77.16
2022-08-05T06:56:00.756Z,76.37
2022-08-05T06:58:35.023Z,75.32
2022-08-05T07:01:05.753Z,74.37
2022-08-05T07:03:33.796Z,73.73
2022-08-05T07:06:06.010Z,74.67
2022-08-05T07:08:47.220Z,74.88
2022-08-05T07:11:16.211Z,75.71
2022-08-05T07:14:02.703Z,74.83
2022-08-05T07:18:00.458Z,74.16
2022-08-05T07:22:29.151Z,73.37
2022-08-05T07:25:22.432Z,73.53
2022-08-05T07:27:56.363Z,72.82
2022-08-05T07:30:31.944Z,72.28
2022-08-05T07:33:01.861Z,72.41
2022-08-05T07:36:03.567Z,72.14
2022-08-05T07:38:33.022Z,73.37
2022-08-05T07:41:34.981Z,71.38
2022-08-05T07:43:56.302Z,73.23
2022-08-05T07:46:26.202Z,74.54
2022-08-05T07:49:03.591Z,75.27
2022-08-05T07:51:41.157Z,73.71
2022-08-05T07:54:23.176Z,74.86
2022-08-05T07:57:13.546Z,75.35
2022-08-05T07:59:42.303Z,74.95
2022-08-05T08:02:16.704Z,74.85
2022-08-05T08:04:47.775Z,74.02
2022-08-05T08:07:17.929Z,73.25
2022-08-05T08:09:46.391Z,73.76
2022-08-05T08:12:36.931Z,73.57
2022-08-05T08:15:04.356Z,74.32
2022-08-05T08:17:36.342Z,74.69
2022-08-05T08:20:22.694Z,72.15
2022-08-05T08:22:57.001Z,70.18
2022-08-05T08:25:27.091Z,71.39
2022-08-05T08:28:18.678Z,72.42
2022-08-05T08:31:02.190Z,72.62
2022-08-05T08:33:36.083Z,73.65
2022-08-05T08:38:56.783Z,72.41
2022-08-05T08:41:52.579Z,72.88
2022-08-05T08:45:24.433Z,72.39
2022-08-05T08:47:04.202Z,71.46
2022-08-05T08:50:06.070Z,71.20
2022-08-05T08:52:53.275Z,70.69
2022-08-05T08:56:01.710Z,68.32
2022-08-05T08:58:10.207Z,68.78
2022-08-05T09:00:41.340Z,68.33
2022-08-05T09:03:10.471Z,67.74
2022-08-05T09:05:38.782Z,65.18
2022-08-05T09:08:26.513Z,63.62
2022-08-05T09:10:54.293Z,63.93
2022-08-05T09:13:21.654Z,63.48
2022-08-05T09:15:54.048Z,62.31
2022-08-05T09:18:22.363Z,61.97
2022-08-05T09:20:51.565Z,61.15
2022-08-05T09:23:21.650Z,61.86
2022-08-05T09:26:00.353Z,63.86
2022-08-05T09:28:35.062Z,64.56
2022-08-05T09:31:23.483Z,64.04
2022-08-05T09:33:59.069Z,64.02
2022-08-05T09:36:56.052Z,62.46
2022-08-05T09:39:27.703Z,62.59
2022-08-05T09:42:20.131Z,63.17
2022-08-05T09:44:56.756Z,62.89
2022-08-05T09:47:34.965Z,62.49
2022-08-05T09:50:37.361Z,62.81
2022-08-05T09:53:09.079Z,63.54
2022-08-05T09:55:57.052Z,63.79
2022-08-05T09:58:29.112Z,61.78
2022-08-05T10:01:02.196Z,61.26
2022-08-05T10:03:58.804Z,60.54
2022-08-05T10:06:28.231Z,60.43
2022-08-05T10:08:56.989Z,60.33
2022-08-05T10:11:35.005Z,60.32
2022-08-05T10:14:32.223Z,59.59
2022-08-05T10:17:37.220Z,58.76
2022-08-05T10:20:04.076Z,59.36
2022-08-05T10:22:38.106Z,58.25
2022-08-05T10:25:10.345Z,58.19
2022-08-05T10:28:13.290Z,58.30
2022-08-05T10:31:20.970Z,57.46
2022-08-05T10:33:17.668Z,57.30
2022-08-05T10:35:50.854Z,57.70
2022-08-05T10:38:29.359Z,57.30
2022-08-05T10:41:23.939Z,55.08
2022-08-05T10:43:53.972Z,54.57
2022-08-05T10:46:23.848Z,54.49
2022-08-05T10:49:05.045Z,55.03
2022-08-05T10:51:59.985Z,54.45
2022-08-05T10:55:04.703Z,54.26
2022-08-05T10:57:34.303Z,53.25
2022-08-05T11:00:18.241Z,51.86
2022-08-05T11:03:25.599Z,52.93
2022-08-05T11:06:16.054Z,52.30
2022-08-05T11:09:16.582Z,52.13
2022-08-05T11:11:53.552Z,50.10
2022-08-05T11:14:56.291Z,49.63
2022-08-05T11:18:00.451Z,49.48
2022-08-05T11:20:39.209Z,49.78
2022-08-05T11:24:02.644Z,51.25
2022-08-05T11:26:28.973Z,52.90
2022-08-05T11:29:11.532Z,53.50
2022-08-05T11:31:58.616Z,52.64
2022-08-05T11:34:40.184Z,51.92
2022-08-05T11:38:29.278Z,51.54
2022-08-05T11:41:00.806Z,50.92
2022-08-05T11:44:01.009Z,51.34
2022-08-05T11:46:32.484Z,50.09
2022-08-05T11:49:01.920Z,48.08
2022-08-05T11:51:43.579Z,47.37
2022-08-05T11:54:14.112Z,48.16
2022-08-05T11:56:50.490Z,48.44
2022-08-05T11:59:21.504Z,48.22
2022-08-05T12:01:56.485Z,47.47
2022-08-05T12:04:24.568Z,46.60
2022-08-05T12:06:54.791Z,46.51
2022-08-05T12:09:52.992Z,46.03
2022-08-05T12:12:14.249Z,45.80
2022-08-05T12:14:43.376Z,45.44
2022-08-05T12:18:02.985Z,45.52
2022-08-05T12:20:17.688Z,46.40
2022-08-05T12:22:51.810Z,46.20
2022-08-05T12:25:19.262Z,46.54
2022-08-05T12:27:53.636Z,45.67
2022-08-05T12:30:22.393Z,44.18
2022-08-05T12:33:07.516Z,41.88
2022-08-05T12:35:46.061Z,42.38
2022-08-05T12:38:15.361Z,42.10
2022-08-05T12:40:44.226Z,42.33
2022-08-05T12:43:11.671Z,42.77
2022-08-05T12:45:55.020Z,42.92
2022-08-05T12:48:27.307Z,42.55
2022-08-05T12:52:10.061Z,42.15
2022-08-05T12:54:16.933Z,42.01
2022-08-05T12:56:54.652Z,41.05
2022-08-05T12:59:27.534Z,40.86
2022-08-05T13:02:12.572Z,40.46
2022-08-05T13:04:52.423Z,40.39
2022-08-05T13:07:57.483Z,40.32
2022-08-05T13:10:19.683Z,40.17
2022-08-05T13:12:57.100Z,41.30
2022-08-05T13:15:36.059Z,42.37
2022-08-05T13:18:09.587Z,43.61
2022-08-05T13:20:40.412Z,44.33
2022-08-05T13:23:08.015Z,44.55
2022-08-05T13:25:52.057Z,44.06
2022-08-05T13:28:22.771Z,44.10
2022-08-05T13:30:51.163Z,42.72
2022-08-05T13:34:24.394Z,43.04
2022-08-05T13:36:14.489Z,42.13
2022-08-05T13:38:43.105Z,41.10
2022-08-05T13:41:11.686Z,41.28
2022-08-05T13:43:44.366Z,41.14
2022-08-05T13:46:43.670Z,41.98
2022-08-05T13:49:12.709Z,41.71
2022-08-05T13:51:46.362Z,41.52
2022-08-05T13:54:20.961Z,41.88
2022-08-05T13:56:53.460Z,41.57
2022-08-05T13:59:23.787Z,41.79
2022-08-05T14:01:59.603Z,41.12
2022-08-05T14:04:49.430Z,41.45
2022-08-05T14:07:59.476Z,41.14
2022-08-05T14:10:19.286Z,41.00
2022-08-05T14:12:56.047Z,40.54
2022-08-05T14:16:05.293Z,40.93
2022-08-05T14:18:17.298Z,40.61
2022-08-05T14:20:54.800Z,40.61
2022-08-05T14:23:25.253Z,41.32
2022-08-05T14:25:58.198Z,41.87
2022-08-05T14:28:28.694Z,41.49
2022-08-05T14:30:57.421Z,41.41
2022-08-05T14:33:25.902Z,41.20
2022-08-05T14:35:54.323Z,40.98
2022-08-05T14:38:32.505Z,40.44
2022-08-05T14:41:06.807Z,40.52
2022-08-05T14:44:02.319Z,40.83
2022-08-05T14:46:29.016Z,40.13
2022-08-05T14:49:03.655Z,40.75
2022-08-05T14:51:42.489Z,40.64
2022-08-05T14:54:28.386Z,40.80
2022-08-05T14:56:58.059Z,41.03
2022-08-05T14:59:29.349Z,40.99
2022-08-05T15:02:14.903Z,41.22
2022-08-05T15:04:51.783Z,40.84
2022-08-05T15:08:05.737Z,40.30
2022-08-05T15:10:09.603Z,39.81
2022-08-05T15:12:59.889Z,39.39
2022-08-05T15:15:55.187Z,38.86
2022-08-05T15:18:13.390Z,38.51
2022-08-05T15:20:42.529Z,38.09
2022-08-05T15:23:11.307Z,38.60
2022-08-05T15:25:51.060Z,38.82
2022-08-05T15:28:19.106Z,38.92
2022-08-05T15:30:53.003Z,39.48
2022-08-05T15:34:04.145Z,39.73
2022-08-05T15:36:16.830Z,39.63
2022-08-05T15:38:46.670Z,39.78
2022-08-05T15:41:23.306Z,39.09
2022-08-05T15:43:54.534Z,39.41
2022-08-05T15:46:24.004Z,39.10
2022-08-05T15:48:58.639Z,38.38
2022-08-05T15:52:12.907Z,38.39
2022-08-05T15:54:17.471Z,39.67
2022-08-05T15:56:44.837Z,38.82
2022-08-05T15:59:21.872Z,38.77
2022-08-05T16:01:52.662Z,38.52
2022-08-05T16:04:25.621Z,38.48
2022-08-05T16:06:56.696Z,39.11
2022-08-05T16:09:25.773Z,39.13
2022-08-05T16:11:58.727Z,39.50
2022-08-05T16:14:26.870Z,38.90
2022-08-05T16:16:54.717Z,38.88
2022-08-05T16:20:02.932Z,38.34
2022-08-05T16:22:10.475Z,38.89
2022-08-05T16:24:41.432Z,38.60
2022-08-05T16:27:18.399Z,38.36
2022-08-05T16:29:50.827Z,38.44
2022-08-05T16:32:28.406Z,38.66
2022-08-05T16:34:57.588Z,38.80
2022-08-05T16:38:03.148Z,38.48
2022-08-05T16:40:26.587Z,38.84
2022-08-05T16:42:56.809Z,38.73
2022-08-05T16:46:04.414Z,38.58
2022-08-05T16:48:11.437Z,39.11
2022-08-05T16:50:53.662Z,38.19
2022-08-05T16:53:22.473Z,38.22
2022-08-05T16:55:59.430Z,37.95
2022-08-05T16:58:26.803Z,38.39
2022-08-05T17:00:54.230Z,37.69
2022-08-05T17:03:22.320Z,37.31
2022-08-05T17:05:53.953Z,37.52
2022-08-05T17:08:36.348Z,37.11
2022-08-05T17:11:12.695Z,37.23
2022-08-05T17:13:47.088Z,37.28
2022-08-05T17:16:33.498Z,37.32
2022-08-05T17:19:01.774Z,37.69
2022-08-05T17:21:35.817Z,36.96
2022-08-05T17:24:14.378Z,37.77
2022-08-05T17:26:54.087Z,37.42
2022-08-05T17:29:33.441Z,36.68
2022-08-05T17:32:11.856Z,37.44
2022-08-05T17:34:47.782Z,37.17
2022-08-05T17:37:41.450Z,36.90
2022-08-05T17:40:10.280Z,36.33
2022-08-05T17:42:41.639Z,36.57
2022-08-05T17:45:20.826Z,36.39
2022-08-05T17:47:54.411Z,36.02
2022-08-05T17:50:28.715Z,36.29
2022-08-05T17:53:01.421Z,35.95
2022-08-05T17:55:34.559Z,35.80
2022-08-05T17:58:12.377Z,35.75
2022-08-05T18:00:45.050Z,36.31
2022-08-05T18:06:06.172Z,35.85
2022-08-05T18:08:44.764Z,35.95
2022-08-05T18:11:23.252Z,35.91
2022-08-05T18:13:52.669Z,35.69
2022-08-05T18:16:20.329Z,35.49
2022-08-05T18:18:49.812Z,35.76
2022-08-05T18:21:20.004Z,35.26
2022-08-05T18:23:53.449Z,34.93
2022-08-05T18:26:27.702Z,34.54
2022-08-05T18:28:57.528Z,34.62
2022-08-05T18:31:25.127Z,33.73
2022-08-05T18:33:52.836Z,33.70
2022-08-05T18:36:27.957Z,34.02
2022-08-05T18:38:55.978Z,33.31
2022-08-05T18:41:58.087Z,33.76
2022-08-05T18:44:11.331Z,33.75
2022-08-05T18:46:41.280Z,32.77
2022-08-05T18:49:30.370Z,32.46
2022-08-05T18:52:16.782Z,32.38
2022-08-05T18:54:45.993Z,32.33
2022-08-05T18:57:15.520Z,32.27
2022-08-05T19:00:02.180Z,31.83
2022-08-05T19:02:30.361Z,32.02
2022-08-05T19:05:02.499Z,31.92
2022-08-05T19:07:50.103Z,31.69
2022-08-05T19:10:26.652Z,31.94
2022-08-05T19:12:58.097Z,31.99
2022-08-05T19:15:58.714Z,32.11
2022-08-05T19:18:20.910Z,31.88
2022-08-05T19:20:53.910Z,32.23
2022-08-05T19:24:04.434Z,32.25
2022-08-05T19:26:11.248Z,32.12
2022-08-05T19:28:43.392Z,32.41
2022-08-05T19:31:13.410Z,32.38
2022-08-05T19:33:48.302Z,32.16
2022-08-05T19:36:25.941Z,32.49
2022-08-05T19:38:55.067Z,32.48
2022-08-05T19:42:05.463Z,32.27
2022-08-05T19:44:16.013Z,31.95
2022-08-05T19:46:43.666Z,32.08
2022-08-05T19:49:16.374Z,32.32
2022-08-05T19:52:04.733Z,32.68
2022-08-05T19:54:32.971Z,32.62
2022-08-05T19:57:06.644Z,33.24
2022-08-05T19:59:56.297Z,33.25
2022-08-05T20:02:27.011Z,33.53
2022-08-05T20:04:58.579Z,33.31
2022-08-05T20:07:47.341Z,33.11
2022-08-05T20:10:22.347Z,33.80
2022-08-05T20:12:51.986Z,33.27
2022-08-05T20:15:23.030Z,33.22
2022-08-05T20:18:10.689Z,33.13
2022-08-05T20:20:56.885Z,33.82
2022-08-05T20:23:40.738Z,33.38
2022-08-05T20:26:17.311Z,33.63
2022-08-05T20:28:47.951Z,33.78
2022-08-05T20:31:16.634Z,33.75
2022-08-05T20:33:45.024Z,33.77
2022-08-05T20:36:14.371Z,33.92
2022-08-05T20:38:54.338Z,34.24
2022-08-05T20:41:43.120Z,33.76
2022-08-05T20:44:18.744Z,34.42
2022-08-05T20:46:57.889Z,34.36
2022-08-05T20:49:25.892Z,34.40
2022-08-05T20:51:54.639Z,34.36
2022-08-05T20:54:22.874Z,34.58
2022-08-05T20:56:52.430Z,34.48
2022-08-05T20:59:26.844Z,34.36
2022-08-05T21:02:07.684Z,33.97
2022-08-05T21:04:36.782Z,34.65
2022-08-05T21:07:05.207Z,34.24
2022-08-05T21:09:35.492Z,34.50
2022-08-05T21:12:09.282Z,34.02
2022-08-05T21:14:38.731Z,34.13
2022-08-05T21:17:06.331Z,34.72
2022-08-05T21:19:47.006Z,34.58
2022-08-05T21:22:23.490Z,34.66
2022-08-05T21:24:52.601Z,34.61
2022-08-05T21:27:25.487Z,34.76
2022-08-05T21:29:58.734Z,34.63
2022-08-05T21:32:29.734Z,35.07
2022-08-05T21:35:16.829Z,35.09
2022-08-05T21:37:52.746Z,35.50
2022-08-05T21:40:23.200Z,35.78
2022-08-05T21:42:52.875Z,36.05
2022-08-05T21:45:24.633Z,36.00
2022-08-05T21:47:55.984Z,35.89
2022-08-05T21:50:26.427Z,35.94
2022-08-05T21:52:59.060Z,35.95
2022-08-05T21:56:01.278Z,36.25
2022-08-05T21:58:20.485Z,36.07
2022-08-05T22:00:56.293Z,35.81
2022-08-05T22:03:49.044Z,35.99
2022-08-05T22:06:11.201Z,36.21
2022-08-05T22:08:42.526Z,35.84
2022-08-05T22:11:15.480Z,36.18
2022-08-05T22:14:05.897Z,36.12
2022-08-05T22:16:51.682Z,36.39
2022-08-05T22:20:02.125Z,36.57
2022-08-05T22:25:21.373Z,36.81
2022-08-05T22:28:08.743Z,36.49
2022-08-05T22:30:55.345Z,37.08
2022-08-05T22:33:55.447Z,36.61
2022-08-05T22:36:14.638Z,36.76
2022-08-05T22:38:48.017Z,36.60
2022-08-05T22:41:26.326Z,37.10
2022-08-05T22:44:06.360Z,37.45
2022-08-05T22:46:34.253Z,37.61
2022-08-05T22:49:12.466Z,37.70
2022-08-05T22:52:05.659Z,37.95
2022-08-05T22:54:36.411Z,37.65
2022-08-05T22:57:05.013Z,37.81
2022-08-05T22:59:45.894Z,38.08
2022-08-05T23:02:28.823Z,38.11
2022-08-05T23:05:01.879Z,38.38
2022-08-05T23:07:45.513Z,38.94
2022-08-05T23:10:20.160Z,39.38
2022-08-05T23:12:51.629Z,39.36
2022-08-05T23:15:27.030Z,39.04
2022-08-05T23:18:01.818Z,39.23
2022-08-05T23:20:31.468Z,39.49
2022-08-05T23:23:00.302Z,39.50
2022-08-05T23:25:51.725Z,39.66
2022-08-05T23:28:18.503Z,39.88
2022-08-05T23:30:53.164Z,40.21
2022-08-05T23:33:26.322Z,40.15
2022-08-05T23:36:10.261Z,40.42
2022-08-05T23:38:38.236Z,40.68
2022-08-05T23:41:05.715Z,40.29
2022-08-05T23:43:49.722Z,40.58
2022-08-05T23:46:22.149Z,40.80
2022-08-05T23:49:00.015Z,41.36
2022-08-05T23:51:56.289Z,41.05
2022-08-05T23:54:34.167Z,41.54
2022-08-05T23:57:05.032Z,41.62
